Time,TemperatureF,DewpointF,PressureIn,WindDirection,WindDirectionDegrees,WindSpeedMPH,WindSpeedGustMPH,Humidity,HourlyPrecipIn,Conditions,Clouds,dailyrainin,SoftwareType,DateUTC
2013-01-18 00:08:00,11.0,9.0,30.62,East,86,0.0,-999.0,91,-99.99,,,0.00,weatherlink.com 1.10,2013-01-18 08:08:00,
2013-01-18 00:23:00,10.2,8.0,30.61,East,86,0.0,-999.0,91,-99.99,,,0.00,weatherlink.com 1.10,2013-01-18 08:23:00,
2013-01-18 00:38:00,10.6,9.0,30.61,East,86,0.0,-999.0,92,-99.99,,,0.00,weatherlink.com 1.10,2013-01-18 08:38:00,
2013-01-18 00:53:00,10.5,9.0,30.61,East,86,0.0,-999.0,92,-99.99,,,0.00,weatherlink.com 1.10,2013-01-18 08:53:00,
2013-01-18 01:08:00,8.9,7.0,30.61,East,86,0.0,-999.0,90,-99.99,,,0.00,weatherlink.com 1.10,2013-01-18 09:08:00,
2013-01-18 01:23:00,9.3,7.0,30.60,East,86,0.0,-999.0,91,-99.99,,,0.00,weatherlink.com 1.10,2013-01-18 09:23:00,
2013-01-18 01:38:00,9.3,7.0,30.60,East,86,0.0,-999.0,91,-99.99,,,0.00,weatherlink.com 1.10,2013-01-18 09:38:00,
2013-01-18 01:53:00,9.4,7.0,30.60,East,86,0.0,-999.0,91,-99.99,,,0.00,weatherlink.com 1.10,2013-01-18 09:53:00,
2013-01-18 02:08:00,9.4,7.0,30.60,East,86,0.0,-999.0,91,-99.99,,,0.00,weatherlink.com 1.10,2013-01-18 10:08:00,
2013-01-18 02:23:00,9.9,8.0,30.60,East,86,0.0,-999.0,91,-99.99,,,0.00,weatherlink.com 1.10,2013-01-18 10:23:00,
2013-01-18 02:38:00,9.8,8.0,30.60,East,86,0.0,-999.0,91,-99.99,,,0.00,weatherlink.com 1.10,2013-01-18 10:38:00,
2013-01-18 02:53:00,9.8,8.0,30.60,East,86,0.0,-999.0,90,-99.99,,,0.00,weatherlink.com 1.10,2013-01-18 10:53:00,
2013-01-18 03:08:00,8.5,6.0,30.59,East,86,0.0,-999.0,89,-99.99,,,0.00,weatherlink.com 1.10,2013-01-18 11:08:00,
2013-01-18 03:24:00,8.3,6.0,30.59,East,86,0.0,-999.0,91,-99.99,,,0.00,weatherlink.com 1.10,2013-01-18 11:24:00,
2013-01-18 03:39:00,9.2,7.0,30.59,East,86,0.0,-999.0,91,-99.99,,,0.00,weatherlink.com 1.10,2013-01-18 11:39:00,
2013-01-18 03:54:00,8.2,6.0,30.58,East,86,0.0,-999.0,89,-99.99,,,0.00,weatherlink.com 1.10,2013-01-18 11:54:00,
2013-01-18 04:09:00,8.2,6.0,30.58,East,86,0.0,-999.0,91,-99.99,,,0.00,weatherlink.com 1.10,2013-01-18 12:09:00,
2013-01-18 04:24:00,8.5,6.0,30.58,SSW,194,0.0,-999.0,91,-99.99,,,0.00,weatherlink.com 1.10,2013-01-18 12:24:00,
2013-01-18 04:39:00,8.3,6.0,30.57,SSE,155,0.0,-999.0,91,-99.99,,,0.00,weatherlink.com 1.10,2013-01-18 12:39:00,
2013-01-18 04:54:00,7.8,6.0,30.58,SSE,155,0.0,-999.0,90,-99.99,,,0.00,weatherlink.com 1.10,2013-01-18 12:54:00,
2013-01-18 05:09:00,7.7,6.0,30.57,SSE,155,0.0,-999.0,91,-99.99,,,0.00,weatherlink.com 1.10,2013-01-18 13:09:00,
2013-01-18 05:24:00,8.5,6.0,30.57,SSE,155,0.0,-999.0,91,-99.99,,,0.00,weatherlink.com 1.10,2013-01-18 13:24:00,
2013-01-18 05:39:00,9.2,7.0,30.56,South,185,0.0,-999.0,91,-99.99,,,0.00,weatherlink.com 1.10,2013-01-18 13:39:00,
2013-01-18 05:54:00,9.1,7.0,30.56,South,185,0.0,-999.0,90,-99.99,,,0.00,weatherlink.com 1.10,2013-01-18 13:54:00,
2013-01-18 06:09:00,9.4,7.0,30.57,South,185,0.0,-999.0,91,-99.99,,,0.00,weatherlink.com 1.10,2013-01-18 14:09:00,
2013-01-18 06:24:00,9.2,7.0,30.56,South,185,0.0,-999.0,90,-99.99,,,0.00,weatherlink.com 1.10,2013-01-18 14:24:00,
2013-01-18 06:39:00,9.9,8.0,30.56,South,185,0.0,-999.0,91,-99.99,,,0.00,weatherlink.com 1.10,2013-01-18 14:39:00,
2013-01-18 06:54:00,10.7,9.0,30.56,South,185,0.0,-999.0,92,-99.99,,,0.00,weatherlink.com 1.10,2013-01-18 14:54:00,
2013-01-18 07:09:00,9.9,8.0,30.55,South,185,0.0,-999.0,90,-99.99,,,0.00,weatherlink.com 1.10,2013-01-18 15:09:00,
2013-01-18 07:24:00,9.4,7.0,30.56,South,185,0.0,-999.0,90,-99.99,,,0.00,weatherlink.com 1.10,2013-01-18 15:24:00,
2013-01-18 07:39:00,10.2,8.0,30.55,South,185,0.0,-999.0,91,-99.99,,,0.00,weatherlink.com 1.10,2013-01-18 15:39:00,
2013-01-18 07:54:00,11.0,9.0,30.55,South,185,0.0,-999.0,91,-99.99,,,0.00,weatherlink.com 1.10,2013-01-18 15:54:00,
2013-01-18 08:09:00,11.8,10.0,30.56,South,185,0.0,-999.0,92,-99.99,,,0.00,weatherlink.com 1.10,2013-01-18 16:09:00,
2013-01-18 08:24:00,12.2,10.0,30.57,South,185,0.0,-999.0,91,-99.99,,,0.00,weatherlink.com 1.10,2013-01-18 16:24:00,
2013-01-18 08:39:00,12.5,10.0,30.56,South,185,0.0,-999.0,91,-99.99,,,0.00,weatherlink.com 1.10,2013-01-18 16:39:00,
2013-01-18 08:54:00,13.8,12.0,30.56,South,185,0.0,-999.0,93,-99.99,,,0.00,weatherlink.com 1.10,2013-01-18 16:54:00,
2013-01-18 09:09:00,13.9,12.0,30.56,South,185,0.0,-999.0,91,-99.99,,,0.00,weatherlink.com 1.10,2013-01-18 17:09:00,
2013-01-18 09:24:00,14.4,12.0,30.56,South,185,0.0,-999.0,91,-99.99,,,0.00,weatherlink.com 1.10,2013-01-18 17:24:00,
2013-01-18 09:39:00,16.0,14.0,30.56,South,185,0.0,-999.0,93,-99.99,,,0.00,weatherlink.com 1.10,2013-01-18 17:39:00,
2013-01-18 09:54:00,17.2,15.0,30.56,South,185,0.0,-999.0,92,-99.99,,,0.00,weatherlink.com 1.10,2013-01-18 17:54:00,
2013-01-18 10:09:00,17.9,16.0,30.55,South,185,0.0,-999.0,90,-99.99,,,0.00,weatherlink.com 1.10,2013-01-18 18:09:00,
2013-01-18 10:24:00,18.2,16.0,30.55,South,185,0.0,-999.0,90,-99.99,,,0.00,weatherlink.com 1.10,2013-01-18 18:24:00,
2013-01-18 10:39:00,20.4,18.0,30.54,SSE,150,1.0,-999.0,90,-99.99,,,0.00,weatherlink.com 1.10,2013-01-18 18:39:00,
2013-01-18 10:54:00,21.6,18.0,30.53,SSE,150,0.0,-999.0,87,-99.99,,,0.00,weatherlink.com 1.10,2013-01-18 18:54:00,
2013-01-18 11:09:00,24.7,21.0,30.52,SSW,198,0.0,-999.0,84,-99.99,,,0.00,weatherlink.com 1.10,2013-01-18 19:09:00,
2013-01-18 11:24:00,27.1,23.0,30.51,South,185,4.0,-999.0,84,-99.99,,,0.01,weatherlink.com 1.10,2013-01-18 19:24:00,
2013-01-18 11:39:00,28.1,23.0,30.50,East,95,1.0,-999.0,82,-99.99,,,0.02,weatherlink.com 1.10,2013-01-18 19:39:00,
2013-01-18 11:55:00,31.9,26.0,30.50,East,91,2.0,-999.0,78,-99.99,,,0.03,weatherlink.com 1.10,2013-01-18 19:55:00,
2013-01-18 12:10:00,32.6,26.0,30.50,East,91,0.0,-999.0,75,-99.99,,,0.05,weatherlink.com 1.10,2013-01-18 20:10:00,
2013-01-18 12:25:00,34.0,26.0,30.49,SSE,163,0.0,-999.0,72,-99.99,,,0.05,weatherlink.com 1.10,2013-01-18 20:25:00,
2013-01-18 12:40:00,34.5,26.0,30.50,SSE,164,0.0,-999.0,70,-99.99,,,0.06,weatherlink.com 1.10,2013-01-18 20:40:00,
2013-01-18 12:55:00,35.2,26.0,30.49,ESE,123,0.0,-999.0,69,-99.99,,,0.06,weatherlink.com 1.10,2013-01-18 20:55:00,
2013-01-18 13:10:00,34.8,27.0,30.49,ENE,77,1.0,-999.0,72,-99.99,,,0.07,weatherlink.com 1.10,2013-01-18 21:10:00,
2013-01-18 13:25:00,35.5,26.0,30.49,East,81,0.0,-999.0,69,-99.99,,,0.07,weatherlink.com 1.10,2013-01-18 21:25:00,
2013-01-18 13:40:00,35.5,26.0,30.48,East,85,2.0,-999.0,69,-99.99,,,0.07,weatherlink.com 1.10,2013-01-18 21:40:00,
2013-01-18 13:55:00,35.1,26.0,30.49,East,87,2.0,-999.0,69,-99.99,,,0.08,weatherlink.com 1.10,2013-01-18 21:55:00,
2013-01-18 14:10:00,35.1,26.0,30.49,East,97,4.0,-999.0,70,-99.99,,,0.08,weatherlink.com 1.10,2013-01-18 22:10:00,
2013-01-18 14:25:00,35.2,26.0,30.48,East,96,0.0,-999.0,70,-99.99,,,0.08,weatherlink.com 1.10,2013-01-18 22:25:00,
2013-01-18 14:40:00,35.0,26.0,30.49,ESE,118,0.0,-999.0,70,-99.99,,,0.08,weatherlink.com 1.10,2013-01-18 22:40:00,
2013-01-18 14:55:00,35.0,26.0,30.48,SSE,150,0.0,-999.0,70,-99.99,,,0.08,weatherlink.com 1.10,2013-01-18 22:55:00,
2013-01-18 15:10:00,34.0,26.0,30.48,East,85,3.0,-999.0,72,-99.99,,,0.09,weatherlink.com 1.10,2013-01-18 23:10:00,
2013-01-18 15:25:00,33.9,26.0,30.47,East,85,0.0,-999.0,73,-99.99,,,0.09,weatherlink.com 1.10,2013-01-18 23:25:00,
2013-01-18 15:40:00,33.8,26.0,30.48,East,85,0.0,-999.0,72,-99.99,,,0.09,weatherlink.com 1.10,2013-01-18 23:40:00,
2013-01-18 15:55:00,33.5,25.0,30.48,East,85,0.0,-999.0,72,-99.99,,,0.10,weatherlink.com 1.10,2013-01-18 23:55:00,
2013-01-18 16:10:00,32.7,25.0,30.47,East,85,0.0,-999.0,74,-99.99,,,0.10,weatherlink.com 1.10,2013-01-19 00:10:00,
2013-01-18 16:25:00,31.0,23.0,30.48,East,85,0.0,-999.0,73,-99.99,,,0.10,weatherlink.com 1.10,2013-01-19 00:25:00,
2013-01-18 16:40:00,29.0,23.0,30.48,East,85,0.0,-999.0,78,-99.99,,,0.10,weatherlink.com 1.10,2013-01-19 00:40:00,
2013-01-18 16:55:00,27.6,23.0,30.48,East,85,0.0,-999.0,81,-99.99,,,0.10,weatherlink.com 1.10,2013-01-19 00:55:00,
2013-01-18 17:10:00,27.1,23.0,30.49,East,85,0.0,-999.0,84,-99.99,,,0.10,weatherlink.com 1.10,2013-01-19 01:10:00,
2013-01-18 17:25:00,26.4,23.0,30.49,East,85,0.0,-999.0,85,-99.99,,,0.10,weatherlink.com 1.10,2013-01-19 01:25:00,
2013-01-18 17:40:00,25.7,23.0,30.49,East,85,0.0,-999.0,89,-99.99,,,0.10,weatherlink.com 1.10,2013-01-19 01:40:00,
2013-01-18 17:55:00,24.9,22.0,30.50,East,85,0.0,-999.0,88,-99.99,,,0.10,weatherlink.com 1.10,2013-01-19 01:55:00,
2013-01-18 18:13:00,22.2,19.0,30.50,East,85,0.0,-999.0,88,-99.99,,,0.10,weatherlink.com 1.10,2013-01-19 02:13:00,
2013-01-18 18:25:00,21.6,19.0,30.51,East,85,0.0,-999.0,90,-99.99,,,0.10,weatherlink.com 1.10,2013-01-19 02:25:00,
2013-01-18 18:40:00,21.7,20.0,30.51,East,85,0.0,-999.0,91,-99.99,,,0.10,weatherlink.com 1.10,2013-01-19 02:40:00,
2013-01-18 18:55:00,21.7,20.0,30.51,East,85,0.0,-999.0,92,-99.99,,,0.10,weatherlink.com 1.10,2013-01-19 02:55:00,
2013-01-18 19:10:00,21.9,20.0,30.52,East,85,0.0,-999.0,92,-99.99,,,0.10,weatherlink.com 1.10,2013-01-19 03:10:00,
2013-01-18 19:25:00,20.6,19.0,30.53,East,85,0.0,-999.0,92,-99.99,,,0.10,weatherlink.com 1.10,2013-01-19 03:25:00,
2013-01-18 19:40:00,20.8,19.0,30.53,East,85,0.0,-999.0,93,-99.99,,,0.10,weatherlink.com 1.10,2013-01-19 03:40:00,
2013-01-18 19:55:00,20.6,19.0,30.53,East,85,0.0,-999.0,92,-99.99,,,0.10,weatherlink.com 1.10,2013-01-19 03:55:00,
2013-01-18 20:10:00,20.3,18.0,30.53,East,85,0.0,-999.0,92,-99.99,,,0.10,weatherlink.com 1.10,2013-01-19 04:10:00,
2013-01-18 20:25:00,20.3,19.0,30.54,East,85,0.0,-999.0,93,-99.99,,,0.10,weatherlink.com 1.10,2013-01-19 04:25:00,
2013-01-18 20:40:00,19.0,17.0,30.54,NNW,327,0.0,-999.0,92,-99.99,,,0.10,weatherlink.com 1.10,2013-01-19 04:40:00,
2013-01-18 20:55:00,18.3,16.0,30.54,NNW,327,0.0,-999.0,92,-99.99,,,0.10,weatherlink.com 1.10,2013-01-19 04:55:00,
2013-01-18 21:10:00,17.7,16.0,30.54,NNW,327,0.0,-999.0,92,-99.99,,,0.10,weatherlink.com 1.10,2013-01-19 05:10:00,
2013-01-18 21:40:00,17.4,16.0,30.54,NNW,327,0.0,-999.0,93,-99.99,,,0.10,weatherlink.com 1.10,2013-01-19 05:40:00,
2013-01-18 21:55:00,16.9,15.0,30.54,NNW,327,0.0,-999.0,93,-99.99,,,0.10,weatherlink.com 1.10,2013-01-19 05:55:00,
2013-01-18 22:10:00,16.9,15.0,30.54,NNW,327,0.0,-999.0,93,-99.99,,,0.10,weatherlink.com 1.10,2013-01-19 06:10:00,
2013-01-18 22:25:00,16.8,15.0,30.54,NNW,327,0.0,-999.0,94,-99.99,,,0.10,weatherlink.com 1.10,2013-01-19 06:25:00,
2013-01-18 22:40:00,15.7,14.0,30.55,NNW,327,0.0,-999.0,92,-99.99,,,0.10,weatherlink.com 1.10,2013-01-19 06:40:00,
2013-01-18 22:55:00,14.9,13.0,30.55,NNW,327,0.0,-999.0,92,-99.99,,,0.10,weatherlink.com 1.10,2013-01-19 06:55:00,
2013-01-18 23:10:00,14.1,12.0,30.55,NNW,327,0.0,-999.0,92,-99.99,,,0.10,weatherlink.com 1.10,2013-01-19 07:10:00,
2013-01-18 23:25:00,14.4,13.0,30.55,NNW,327,0.0,-999.0,93,-99.99,,,0.10,weatherlink.com 1.10,2013-01-19 07:25:00,
2013-01-18 23:40:00,15.5,14.0,30.55,NNW,327,0.0,-999.0,94,-99.99,,,0.10,weatherlink.com 1.10,2013-01-19 07:40:00,
2013-01-18 23:55:00,15.2,14.0,30.55,NNW,327,0.0,-999.0,93,-99.99,,,0.10,weatherlink.com 1.10,2013-01-19 07:55:00,